createdAt,value
2023-01-01T00:01:41.549Z,14.37
2023-01-01T00:04:12.167Z,14.33
2023-01-01T00:06:39.164Z,14.33
2023-01-01T00:09:24.771Z,14.37
2023-01-01T00:11:51.613Z,14.29
2023-01-01T00:14:18.441Z,14.33
2023-01-01T00:16:45.241Z,14.32
2023-01-01T00:19:12.074Z,14.31
2023-01-01T00:21:40.175Z,14.31
2023-01-01T00:24:07.739Z,14.30
2023-01-01T00:26:35.725Z,14.29
2023-01-01T00:29:03.545Z,14.33
2023-01-01T00:31:30.448Z,14.27
2023-01-01T00:34:01.202Z,14.31
2023-01-01T00:36:28.644Z,14.29
2023-01-01T00:38:55.926Z,14.33
2023-01-01T00:41:23.061Z,14.29
2023-01-01T00:43:50.950Z,14.31
2023-01-01T00:46:17.805Z,14.32
2023-01-01T00:48:44.642Z,14.28
2023-01-01T00:51:11.600Z,14.27
2023-01-01T00:53:38.588Z,14.27
2023-01-01T00:56:08.503Z,14.29
2023-01-01T00:58:35.613Z,14.25
2023-01-01T01:01:03.037Z,14.23
2023-01-01T01:03:30.656Z,14.24
2023-01-01T01:06:03.959Z,14.28
2023-01-01T01:08:34.336Z,14.24
2023-01-01T01:11:08.525Z,14.26
2023-01-01T01:13:38.199Z,14.25
2023-01-01T01:16:17.027Z,14.27
2023-01-01T01:18:46.080Z,14.25
2023-01-01T01:21:17.412Z,14.32
2023-01-01T01:23:44.405Z,14.34
2023-01-01T01:26:16.931Z,14.30
2023-01-01T01:28:50.557Z,14.29
2023-01-01T01:31:18.987Z,14.32
2023-01-01T01:33:46.656Z,14.31
2023-01-01T01:36:15.129Z,14.28
2023-01-01T01:38:42.060Z,14.30
2023-01-01T01:41:08.945Z,14.32
2023-01-01T01:43:35.685Z,14.35
2023-01-01T01:46:08.680Z,14.37
2023-01-01T01:48:39.999Z,14.32
2023-01-01T01:51:07.377Z,14.33
2023-01-01T01:53:36.316Z,14.33
2023-01-01T01:56:05.384Z,14.34
2023-01-01T01:58:32.991Z,14.32
2023-01-01T02:01:00.168Z,14.32
2023-01-01T02:03:44.052Z,14.30
2023-01-01T02:06:11.856Z,14.27
2023-01-01T02:08:38.717Z,14.23
2023-01-01T02:11:05.844Z,14.21
2023-01-01T02:13:32.917Z,14.22
2023-01-01T02:16:13.683Z,14.22
2023-01-01T02:19:22.691Z,14.21
2023-01-01T02:22:03.215Z,14.19
2023-01-01T02:24:48.813Z,14.21
2023-01-01T02:27:24.727Z,14.20
2023-01-01T02:29:55.338Z,14.24
2023-01-01T02:32:33.758Z,14.23
2023-01-01T02:35:22.308Z,14.23
2023-01-01T02:37:50.818Z,14.25
2023-01-01T02:40:19.152Z,14.26
2023-01-01T02:42:46.127Z,14.29
2023-01-01T02:45:12.989Z,14.27
2023-01-01T02:47:43.399Z,14.28
2023-01-01T02:50:29.084Z,14.22
2023-01-01T02:53:08.151Z,14.21
2023-01-01T02:56:16.939Z,14.23
2023-01-01T02:59:13.834Z,14.22
2023-01-01T03:02:14.508Z,14.16
2023-01-01T03:05:08.568Z,14.11
2023-01-01T03:08:01.639Z,14.10
2023-01-01T03:10:44.970Z,14.06
2023-01-01T03:13:37.232Z,14.07
2023-01-01T03:16:20.700Z,14.03
2023-01-01T03:19:11.708Z,14.01
2023-01-01T03:21:57.869Z,14.01
2023-01-01T03:24:30.081Z,14.06
2023-01-01T03:27:01.712Z,14.04
2023-01-01T03:29:31.538Z,14.05
2023-01-01T03:31:59.237Z,14.06
2023-01-01T03:34:34.129Z,14.05
2023-01-01T03:37:04.672Z,14.07
2023-01-01T03:39:36.995Z,14.06
2023-01-01T03:42:16.268Z,14.07
2023-01-01T03:44:49.336Z,14.09
2023-01-01T03:47:16.403Z,14.11
2023-01-01T03:49:43.944Z,14.11
2023-01-01T03:52:21.485Z,14.16
2023-01-01T03:55:12.129Z,14.14
2023-01-01T03:57:50.560Z,14.19
2023-01-01T04:00:19.322Z,14.20
2023-01-01T04:02:59.456Z,14.12
2023-01-01T04:05:27.296Z,14.12
2023-01-01T04:07:54.936Z,14.15
2023-01-01T04:10:23.511Z,14.13
2023-01-01T04:12:53.104Z,14.16
2023-01-01T04:15:25.009Z,14.15
2023-01-01T04:17:52.379Z,14.12
2023-01-01T04:20:19.763Z,14.11
2023-01-01T04:22:46.581Z,14.11
2023-01-01T04:25:14.113Z,14.11
2023-01-01T04:27:41.849Z,14.12
2023-01-01T04:30:10.973Z,14.10
2023-01-01T04:32:38.122Z,14.10
2023-01-01T04:35:06.195Z,14.16
2023-01-01T04:37:35.950Z,14.14
2023-01-01T04:40:03.441Z,14.12
2023-01-01T04:42:30.331Z,14.12
2023-01-01T04:44:57.247Z,14.12
2023-01-01T04:47:26.702Z,14.15
2023-01-01T04:49:54.021Z,14.11
2023-01-01T04:52:20.992Z,14.09
2023-01-01T04:54:47.798Z,14.05
2023-01-01T04:57:14.711Z,14.06
2023-01-01T04:59:41.883Z,14.07
2023-01-01T05:02:08.778Z,14.03
2023-01-01T05:04:35.548Z,14.01
2023-01-01T05:07:02.389Z,13.99
2023-01-01T05:09:29.308Z,14.02
2023-01-01T05:11:57.588Z,13.99
2023-01-01T05:14:24.416Z,13.98
2023-01-01T05:16:52.816Z,13.97
2023-01-01T05:19:19.627Z,13.91
2023-01-01T05:21:46.736Z,13.91
2023-01-01T05:24:13.527Z,13.89
2023-01-01T05:26:44.857Z,13.88
2023-01-01T05:29:16.542Z,13.86
2023-01-01T05:31:44.645Z,13.88
2023-01-01T05:34:11.528Z,13.87
2023-01-01T05:36:39.370Z,13.89
2023-01-01T05:39:12.251Z,13.88
2023-01-01T05:41:40.080Z,13.88
2023-01-01T05:44:09.058Z,13.84
2023-01-01T05:46:36.344Z,13.86
2023-01-01T05:49:03.404Z,13.85
2023-01-01T05:53:58.437Z,13.80
2023-01-01T05:56:25.770Z,13.82
2023-01-01T05:58:52.659Z,13.84
2023-01-01T06:01:22.111Z,13.83
2023-01-01T06:03:49.563Z,13.84
2023-01-01T06:06:21.284Z,13.80
2023-01-01T06:08:53.056Z,13.80
2023-01-01T06:11:20.377Z,13.79
2023-01-01T06:13:47.096Z,13.79
2023-01-01T06:16:16.943Z,13.76
2023-01-01T06:18:43.719Z,13.78
2023-01-01T06:21:18.527Z,13.77
2023-01-01T06:23:45.400Z,13.77
2023-01-01T06:26:20.468Z,13.78
2023-01-01T06:28:47.786Z,13.74
2023-01-01T06:31:17.527Z,13.79
2023-01-01T06:33:44.559Z,13.77
2023-01-01T06:36:13.289Z,13.74
2023-01-01T06:38:42.434Z,13.72
2023-01-01T06:41:23.667Z,13.70
2023-01-01T06:43:50.972Z,13.73
2023-01-01T06:46:30.081Z,13.72
2023-01-01T06:48:59.190Z,13.74
2023-01-01T06:51:37.153Z,13.73
2023-01-01T06:54:04.629Z,13.73
2023-01-01T06:56:34.392Z,13.70
2023-01-01T06:59:07.219Z,13.66
2023-01-01T07:01:36.216Z,13.70
2023-01-01T07:04:05.945Z,13.67
2023-01-01T07:06:36.715Z,13.63
2023-01-01T07:09:04.025Z,13.64
2023-01-01T07:11:30.823Z,13.66
2023-01-01T07:13:57.791Z,13.66
2023-01-01T07:16:24.985Z,13.65
2023-01-01T07:18:52.322Z,13.67
2023-01-01T07:21:38.496Z,13.64
2023-01-01T07:24:06.166Z,13.63
2023-01-01T07:26:33.692Z,13.64
2023-01-01T07:29:06.758Z,13.67
2023-01-01T07:31:36.218Z,13.67
2023-01-01T07:34:03.400Z,13.72
2023-01-01T07:36:30.238Z,13.70
2023-01-01T07:38:56.987Z,13.71
2023-01-01T07:41:23.773Z,13.70
2023-01-01T07:43:50.714Z,13.72
2023-01-01T07:46:19.176Z,13.67
2023-01-01T07:48:46.224Z,13.72
2023-01-01T07:51:13.441Z,13.69
2023-01-01T07:53:41.444Z,13.70
2023-01-01T07:56:08.673Z,13.73
2023-01-01T07:58:35.561Z,13.70
2023-01-01T08:01:02.472Z,13.72
2023-01-01T08:03:29.570Z,13.73
2023-01-01T08:05:56.396Z,13.75
2023-01-01T08:08:25.682Z,13.73
2023-01-01T08:10:52.503Z,13.74
2023-01-01T08:13:19.201Z,13.75
2023-01-01T08:15:48.249Z,13.77
2023-01-01T08:18:15.244Z,13.80
2023-01-01T08:20:41.957Z,13.83
2023-01-01T08:23:08.637Z,13.90
2023-01-01T08:25:35.427Z,13.88
2023-01-01T08:28:02.222Z,13.88
2023-01-01T08:30:29.199Z,13.87
2023-01-01T08:32:56.054Z,13.86
2023-01-01T08:35:22.852Z,13.85
2023-01-01T08:37:49.681Z,13.90
2023-01-01T08:40:16.421Z,13.85
2023-01-01T08:42:43.273Z,13.91
2023-01-01T08:45:10.593Z,13.87
2023-01-01T08:47:38.384Z,13.90
2023-01-01T08:50:05.703Z,13.92
2023-01-01T08:52:32.741Z,13.92
2023-01-01T08:54:59.747Z,13.94
2023-01-01T08:57:37.494Z,13.94
2023-01-01T09:00:09.769Z,13.94
2023-01-01T09:02:36.716Z,13.93
2023-01-01T09:05:03.724Z,13.96
2023-01-01T09:07:30.490Z,13.92
2023-01-01T09:09:57.196Z,13.92
2023-01-01T09:12:23.993Z,13.92
2023-01-01T09:14:50.699Z,13.95
2023-01-01T09:17:17.556Z,13.97
2023-01-01T09:19:44.612Z,14.00
2023-01-01T09:22:11.908Z,14.00
2023-01-01T09:24:48.514Z,14.00
2023-01-01T09:27:26.203Z,14.02
2023-01-01T09:29:53.112Z,14.01
2023-01-01T09:32:24.048Z,13.99
2023-01-01T09:34:52.632Z,14.03
2023-01-01T09:37:19.824Z,14.03
2023-01-01T09:39:46.814Z,14.06
2023-01-01T09:42:22.642Z,14.06
2023-01-01T09:45:28.518Z,14.09
2023-01-01T09:48:15.880Z,14.09
2023-01-01T09:50:44.906Z,14.14
2023-01-01T09:53:23.012Z,14.14
2023-01-01T09:55:59.767Z,14.15
2023-01-01T09:58:29.116Z,14.16
2023-01-01T10:01:01.944Z,14.15
2023-01-01T10:03:41.377Z,14.17
2023-01-01T10:06:27.135Z,14.18
2023-01-01T10:09:06.775Z,14.18
2023-01-01T10:12:00.888Z,14.23
2023-01-01T10:14:40.061Z,14.23
2023-01-01T10:17:13.875Z,14.26
2023-01-01T10:19:51.090Z,14.25
2023-01-01T10:22:24.211Z,14.25
2023-01-01T10:24:59.535Z,14.29
2023-01-01T10:27:59.587Z,14.28
2023-01-01T10:31:16.600Z,14.27
2023-01-01T10:33:54.024Z,14.25
2023-01-01T10:36:28.341Z,14.27
2023-01-01T10:39:02.508Z,14.29
2023-01-01T10:41:37.122Z,14.29
2023-01-01T10:44:14.135Z,14.31
2023-01-01T10:47:10.931Z,14.31
2023-01-01T10:50:07.852Z,14.32
2023-01-01T10:52:50.514Z,14.30
2023-01-01T10:55:45.269Z,14.32
2023-01-01T10:58:54.212Z,14.34
2023-01-01T11:02:18.457Z,14.31
2023-01-01T11:05:04.194Z,14.32
2023-01-01T11:07:58.676Z,14.32
2023-01-01T11:11:29.294Z,14.33
2023-01-01T11:14:28.121Z,14.30
2023-01-01T11:17:01.108Z,14.35
2023-01-01T11:19:52.803Z,14.32
2023-01-01T11:22:53.230Z,14.27
2023-01-01T11:25:27.085Z,14.28
2023-01-01T11:28:19.723Z,14.29
2023-01-01T11:31:21.885Z,14.24
2023-01-01T11:33:58.778Z,14.26
2023-01-01T11:40:02.073Z,14.26
2023-01-01T11:46:58.496Z,14.29
2023-01-01T11:49:54.911Z,14.30
2023-01-01T11:52:48.837Z,14.34
2023-01-01T11:55:25.332Z,14.37
2023-01-01T11:58:19.404Z,14.35
2023-01-01T12:00:48.782Z,14.36
2023-01-01T12:03:34.550Z,14.34
2023-01-01T12:06:17.292Z,14.35
2023-01-01T12:08:55.432Z,14.30
2023-01-01T12:11:30.560Z,14.37
2023-01-01T12:14:12.837Z,14.32
2023-01-01T12:17:03.722Z,14.29
2023-01-01T12:19:55.393Z,14.32
2023-01-01T12:22:31.038Z,14.31
2023-01-01T12:25:03.900Z,14.33
2023-01-01T12:27:54.727Z,14.35
2023-01-01T12:30:28.203Z,14.31
2023-01-01T12:33:09.964Z,14.35
2023-01-01T12:36:33.447Z,14.37
2023-01-01T12:40:27.173Z,14.28
2023-01-01T12:47:34.252Z,14.34
2023-01-01T12:50:56.033Z,14.46
2023-01-01T13:01:11.484Z,14.34
2023-01-01T13:03:50.959Z,14.35
2023-01-01T13:06:26.527Z,14.35
2023-01-01T13:09:05.479Z,14.33
2023-01-01T13:11:33.071Z,14.33
2023-01-01T13:14:00.593Z,14.33
2023-01-01T13:16:59.638Z,14.29
2023-01-01T13:19:37.677Z,14.29
2023-01-01T13:22:28.404Z,14.27
2023-01-01T13:25:14.182Z,14.27
2023-01-01T13:28:01.038Z,14.26
2023-01-01T13:30:39.975Z,14.24
2023-01-01T13:33:31.436Z,14.22
2023-01-01T13:36:12.311Z,14.22
2023-01-01T13:38:49.389Z,14.18
2023-01-01T13:41:25.442Z,14.20
2023-01-01T13:44:00.263Z,14.17
2023-01-01T13:46:44.109Z,14.17
2023-01-01T13:49:36.171Z,14.13
2023-01-01T13:52:36.034Z,14.15
2023-01-01T13:55:30.345Z,14.12
2023-01-01T13:58:12.668Z,14.09
2023-01-01T14:01:01.423Z,14.12
2023-01-01T14:03:28.942Z,14.12
2023-01-01T14:05:59.132Z,14.12
2023-01-01T14:08:27.913Z,14.09
2023-01-01T14:10:58.435Z,14.11
2023-01-01T14:13:30.200Z,14.11
2023-01-01T14:16:11.049Z,14.12
2023-01-01T14:18:53.391Z,14.02
2023-01-01T14:21:28.016Z,14.01
2023-01-01T14:24:01.793Z,14.04
2023-01-01T14:26:29.837Z,14.02
2023-01-01T14:29:21.319Z,14.00
2023-01-01T14:31:58.698Z,13.97
2023-01-01T14:34:31.835Z,13.95
2023-01-01T14:37:00.920Z,13.93
2023-01-01T14:39:32.140Z,13.92
2023-01-01T14:42:06.058Z,13.93
2023-01-01T14:44:53.746Z,13.93
2023-01-01T14:48:01.596Z,13.93
2023-01-01T14:50:36.655Z,13.90
2023-01-01T14:53:09.512Z,13.90
2023-01-01T14:55:49.681Z,13.86
2023-01-01T14:58:21.804Z,13.85
2023-01-01T15:00:53.362Z,13.89
2023-01-01T15:03:26.340Z,13.87
2023-01-01T15:06:03.476Z,13.86
2023-01-01T15:08:35.953Z,13.82
2023-01-01T15:11:06.158Z,13.89
2023-01-01T15:13:33.530Z,13.88
2023-01-01T15:16:34.721Z,13.83
2023-01-01T15:19:46.471Z,13.80
2023-01-01T15:30:44.618Z,13.57
2023-01-01T15:33:21.550Z,13.47
2023-01-01T15:36:31.454Z,13.33
2023-01-01T15:40:27.677Z,13.16
2023-01-01T15:57:36.053Z,12.69
2023-01-01T16:09:45.269Z,12.47
2023-01-01T16:12:11.955Z,12.54
2023-01-01T16:14:38.780Z,12.55
2023-01-01T16:17:05.500Z,12.49
2023-01-01T16:19:32.595Z,12.52
2023-01-01T16:21:59.384Z,12.46
2023-01-01T16:24:26.153Z,12.42
2023-01-01T16:26:53.329Z,12.37
2023-01-01T16:29:20.064Z,12.34
2023-01-01T16:31:48.208Z,12.28
2023-01-01T16:34:15.232Z,12.33
2023-01-01T16:36:43.341Z,12.26
2023-01-01T16:39:10.232Z,12.28
2023-01-01T16:41:40.270Z,12.29
2023-01-01T16:44:06.944Z,12.26
2023-01-01T16:46:33.772Z,12.26
2023-01-01T16:49:00.575Z,12.23
2023-01-01T16:51:29.463Z,12.28
2023-01-01T16:53:57.496Z,12.27
2023-01-01T16:56:24.421Z,12.34
2023-01-01T16:58:54.287Z,12.28
2023-01-01T17:01:25.051Z,12.27
2023-01-01T17:03:51.881Z,12.26
2023-01-01T17:06:18.906Z,12.39
2023-01-01T17:08:47.883Z,12.42
2023-01-01T17:11:17.155Z,12.48
2023-01-01T17:13:45.578Z,12.51
2023-01-01T17:16:23.049Z,12.52
2023-01-01T17:19:14.523Z,12.49
2023-01-01T17:21:41.680Z,12.42
2023-01-01T17:24:08.618Z,12.40
2023-01-01T17:26:35.514Z,12.39
2023-01-01T17:29:03.114Z,12.39
2023-01-01T17:31:30.307Z,12.44
2023-01-01T17:33:57.079Z,12.46
2023-01-01T17:36:24.545Z,12.43
2023-01-01T17:38:51.299Z,12.43
2023-01-01T17:41:18.102Z,12.44
2023-01-01T17:43:47.550Z,12.40
2023-01-01T17:46:26.116Z,12.37
2023-01-01T17:48:53.512Z,12.38
2023-01-01T17:51:23.329Z,12.37
2023-01-01T17:53:50.658Z,12.33
2023-01-01T17:56:18.543Z,12.28
2023-01-01T17:58:46.334Z,12.26
2023-01-01T18:01:16.144Z,12.24
2023-01-01T18:03:42.979Z,12.20
2023-01-01T18:06:09.749Z,12.20
2023-01-01T18:08:36.464Z,12.21
2023-01-01T18:11:03.208Z,12.17
2023-01-01T18:13:32.895Z,12.16
2023-01-01T18:16:09.395Z,12.11
2023-01-01T18:18:37.758Z,12.11
2023-01-01T18:21:15.153Z,12.07
2023-01-01T18:23:41.953Z,12.06
2023-01-01T18:26:10.401Z,12.07
2023-01-01T18:28:38.145Z,12.05
2023-01-01T18:31:06.213Z,12.00
2023-01-01T18:33:34.656Z,11.97
2023-01-01T18:36:05.772Z,11.96
2023-01-01T18:38:33.111Z,11.93
2023-01-01T18:41:09.752Z,11.91
2023-01-01T18:43:36.481Z,11.90
2023-01-01T18:46:08.931Z,11.90
2023-01-01T18:48:36.008Z,11.89
2023-01-01T18:51:02.780Z,11.88
2023-01-01T18:53:31.338Z,11.86
2023-01-01T18:56:16.218Z,11.80
2023-01-01T18:58:44.012Z,11.82
2023-01-01T19:01:59.100Z,11.76
2023-01-01T19:04:34.447Z,11.77
2023-01-01T19:07:11.940Z,11.76
2023-01-01T19:09:54.156Z,11.73
2023-01-01T19:12:59.077Z,11.67
2023-01-01T19:19:23.421Z,11.64
2023-01-01T19:23:54.810Z,11.52
2023-01-01T19:38:11.746Z,11.63
2023-01-01T19:41:58.210Z,11.65
2023-01-01T19:48:01.042Z,11.72
2023-01-01T19:54:22.133Z,11.75
2023-01-01T19:57:53.654Z,11.79
2023-01-01T20:00:40.538Z,11.84
2023-01-01T20:03:52.842Z,11.82
2023-01-01T20:06:39.557Z,11.80
2023-01-01T20:09:14.944Z,11.83
2023-01-01T20:11:44.025Z,11.89
2023-01-01T20:14:12.240Z,11.92
2023-01-01T20:16:39.868Z,11.95
2023-01-01T20:19:16.993Z,11.97
2023-01-01T20:22:04.326Z,11.95
2023-01-01T20:24:37.262Z,11.91
2023-01-01T20:27:14.452Z,11.93
2023-01-01T20:29:43.923Z,11.92
2023-01-01T20:32:21.654Z,11.92
2023-01-01T20:34:51.884Z,11.93
2023-01-01T20:37:39.309Z,11.91
2023-01-01T20:40:12.711Z,11.92
2023-01-01T20:42:43.776Z,11.92
2023-01-01T20:45:11.622Z,11.91
2023-01-01T20:47:41.738Z,11.88
2023-01-01T20:50:13.975Z,11.88
2023-01-01T20:52:43.876Z,11.89
2023-01-01T20:55:10.919Z,11.89
2023-01-01T20:57:40.434Z,11.88
2023-01-01T21:00:23.294Z,11.85
2023-01-01T21:03:02.068Z,11.85
2023-01-01T21:05:35.745Z,11.84
2023-01-01T21:08:13.635Z,11.85
2023-01-01T21:10:54.192Z,11.87
2023-01-01T21:13:29.714Z,11.88
2023-01-01T21:16:20.352Z,11.82
2023-01-01T21:18:50.488Z,11.84
2023-01-01T21:21:23.640Z,11.81
2023-01-01T21:23:56.437Z,11.87
2023-01-01T21:26:31.700Z,11.85
2023-01-01T21:29:13.399Z,11.81
2023-01-01T21:31:49.830Z,11.85
2023-01-01T21:35:08.372Z,11.81
2023-01-01T21:41:44.215Z,11.80
2023-01-01T21:44:27.783Z,11.79
2023-01-01T21:47:08.678Z,11.78
2023-01-01T21:49:48.297Z,11.80
2023-01-01T21:52:34.132Z,11.77
2023-01-01T21:55:26.255Z,11.76
2023-01-01T21:58:34.491Z,11.80
2023-01-01T22:01:44.532Z,11.72
2023-01-01T22:04:37.103Z,11.74
2023-01-01T22:10:25.912Z,11.76
2023-01-01T22:13:09.122Z,11.76
2023-01-01T22:15:48.197Z,11.80
2023-01-01T22:18:41.843Z,11.79
2023-01-01T22:21:21.788Z,11.79
2023-01-01T22:24:09.667Z,11.82
2023-01-01T22:30:01.120Z,11.75
2023-01-01T22:32:39.464Z,11.79
2023-01-01T22:35:33.001Z,11.80
2023-01-01T22:38:28.050Z,11.77
2023-01-01T22:41:07.205Z,11.79
2023-01-01T22:43:36.808Z,11.71
2023-01-01T22:46:26.929Z,11.69
2023-01-01T22:49:06.989Z,11.71
2023-01-01T22:51:46.698Z,11.74
2023-01-01T22:54:35.215Z,11.77
2023-01-01T22:57:20.291Z,11.78
2023-01-01T23:00:07.674Z,11.78
2023-01-01T23:03:01.311Z,11.78
2023-01-01T23:07:03.087Z,11.79
2023-01-01T23:09:35.490Z,11.73
2023-01-01T23:12:11.124Z,11.67
2023-01-01T23:15:24.518Z,11.69
2023-01-01T23:18:08.745Z,11.73
2023-01-01T23:21:26.691Z,11.74
2023-01-01T23:24:37.703Z,11.73
2023-01-01T23:33:14.917Z,11.77
2023-01-01T23:36:31.311Z,11.73
2023-01-01T23:39:43.524Z,11.74
2023-01-01T23:42:52.542Z,11.74
2023-01-01T23:45:29.983Z,11.73
2023-01-01T23:51:09.741Z,11.74
2023-01-01T23:53:46.341Z,11.72
2023-01-01T23:59:47.176Z,11.67
